createdAt,value
2022-08-29T00:01:22.949Z,21.66
2022-08-29T00:03:50.313Z,21.69
2022-08-29T00:06:17.333Z,21.69
2022-08-29T00:08:44.292Z,21.69
2022-08-29T00:11:11.331Z,21.63
2022-08-29T00:13:38.253Z,21.67
2022-08-29T00:16:05.702Z,21.67
2022-08-29T00:18:33.258Z,21.63
2022-08-29T00:21:00.177Z,21.64
2022-08-29T00:23:27.087Z,21.63
2022-08-29T00:25:54.777Z,21.63
2022-08-29T00:28:21.824Z,21.63
2022-08-29T00:30:49.071Z,21.62
2022-08-29T00:33:17.012Z,21.61
2022-08-29T00:35:46.299Z,21.60
2022-08-29T00:38:18.298Z,21.60
2022-08-29T00:40:55.663Z,21.57
2022-08-29T00:43:31.326Z,21.57
2022-08-29T00:46:18.788Z,21.57
2022-08-29T00:48:59.459Z,21.56
2022-08-29T00:51:26.405Z,21.55
2022-08-29T00:54:01.208Z,21.56
2022-08-29T00:56:29.336Z,21.58
2022-08-29T00:59:07.858Z,21.60
2022-08-29T01:01:35.060Z,21.62
2022-08-29T01:04:02.020Z,21.62
2022-08-29T01:06:32.648Z,21.62
2022-08-29T01:08:59.686Z,21.60
2022-08-29T01:11:48.264Z,21.58
2022-08-29T01:14:18.471Z,21.57
2022-08-29T01:16:47.218Z,21.55
2022-08-29T01:20:00.873Z,21.51
2022-08-29T01:23:13.622Z,21.47
2022-08-29T01:25:48.587Z,21.41
2022-08-29T01:28:37.579Z,21.39
2022-08-29T01:31:46.942Z,21.36
2022-08-29T01:34:04.878Z,21.33
2022-08-29T01:36:50.356Z,21.32
2022-08-29T01:39:19.384Z,21.32
2022-08-29T01:41:46.292Z,21.33
2022-08-29T01:44:20.238Z,21.33
2022-08-29T01:46:58.032Z,21.32
2022-08-29T01:49:28.710Z,21.34
2022-08-29T01:51:55.654Z,21.33
2022-08-29T01:54:22.586Z,21.38
2022-08-29T01:56:52.812Z,21.36
2022-08-29T01:59:25.385Z,21.36
2022-08-29T02:02:07.446Z,21.36
2022-08-29T02:04:35.217Z,21.36
2022-08-29T02:07:03.316Z,21.38
2022-08-29T02:09:30.439Z,21.40
2022-08-29T02:12:00.230Z,21.42
2022-08-29T02:14:27.126Z,21.43
2022-08-29T02:16:54.293Z,21.47
2022-08-29T02:19:21.179Z,21.47
2022-08-29T02:21:51.076Z,21.49
2022-08-29T02:24:26.237Z,21.51
2022-08-29T02:26:55.435Z,21.51
2022-08-29T02:29:22.862Z,21.52
2022-08-29T02:31:49.805Z,21.52
2022-08-29T02:34:17.580Z,21.51
2022-08-29T02:36:44.793Z,21.50
2022-08-29T02:39:15.072Z,21.51
2022-08-29T02:41:42.066Z,21.49
2022-08-29T02:44:11.600Z,21.49
2022-08-29T02:46:38.632Z,21.47
2022-08-29T02:49:05.635Z,21.45
2022-08-29T02:51:33.740Z,21.44
2022-08-29T02:54:02.027Z,21.40
2022-08-29T02:56:29.863Z,21.40
2022-08-29T02:58:57.695Z,21.39
2022-08-29T03:01:26.131Z,21.38
2022-08-29T03:03:53.670Z,21.39
2022-08-29T03:06:21.917Z,21.40
2022-08-29T03:08:50.363Z,21.39
2022-08-29T03:11:18.106Z,21.39
2022-08-29T03:13:45.829Z,21.35
2022-08-29T03:16:13.549Z,21.32
2022-08-29T03:18:40.519Z,21.31
2022-08-29T03:21:17.231Z,21.28
2022-08-29T03:23:44.123Z,21.26
2022-08-29T03:26:11.040Z,21.22
2022-08-29T03:28:37.930Z,21.19
2022-08-29T03:31:05.168Z,21.17
2022-08-29T03:33:32.093Z,21.14
2022-08-29T03:35:59.079Z,21.10
2022-08-29T03:38:25.979Z,21.09
2022-08-29T03:40:53.414Z,21.07
2022-08-29T03:43:25.055Z,21.06
2022-08-29T03:45:52.576Z,21.05
2022-08-29T03:48:19.470Z,21.06
2022-08-29T03:50:46.398Z,21.04
2022-08-29T03:53:13.500Z,21.05
2022-08-29T03:55:40.434Z,21.04
2022-08-29T03:58:07.863Z,21.02
2022-08-29T04:00:34.860Z,21.05
2022-08-29T04:03:01.977Z,21.05
2022-08-29T04:05:28.939Z,21.05
2022-08-29T04:07:59.352Z,21.05
2022-08-29T04:10:34.468Z,21.05
2022-08-29T04:13:01.652Z,21.04
2022-08-29T04:15:29.432Z,21.04
2022-08-29T04:18:03.393Z,21.03
2022-08-29T04:20:34.051Z,21.03
2022-08-29T04:23:01.391Z,21.05
2022-08-29T04:25:37.224Z,21.04
2022-08-29T04:28:11.028Z,21.05
2022-08-29T04:30:39.755Z,21.05
2022-08-29T04:33:06.995Z,21.07
2022-08-29T04:35:35.533Z,21.08
2022-08-29T04:38:02.480Z,21.09
2022-08-29T04:40:29.633Z,21.10
2022-08-29T04:42:58.105Z,21.10
2022-08-29T04:45:25.674Z,21.15
2022-08-29T04:47:52.963Z,21.15
2022-08-29T04:50:23.033Z,21.18
2022-08-29T04:52:52.397Z,21.16
2022-08-29T04:55:22.676Z,21.21
2022-08-29T04:57:56.237Z,21.23
2022-08-29T05:00:28.040Z,21.26
2022-08-29T05:02:55.793Z,21.29
2022-08-29T05:05:23.092Z,21.31
2022-08-29T05:07:49.997Z,21.38
2022-08-29T05:10:20.391Z,21.42
2022-08-29T05:12:47.759Z,21.46
2022-08-29T05:15:15.866Z,21.49
2022-08-29T05:17:43.611Z,21.54
2022-08-29T05:20:12.061Z,21.57
2022-08-29T05:22:40.355Z,21.63
2022-08-29T05:25:07.872Z,21.70
2022-08-29T05:27:34.865Z,21.75
2022-08-29T05:30:04.107Z,21.74
2022-08-29T05:32:31.041Z,21.79
2022-08-29T05:34:58.881Z,21.82
2022-08-29T05:37:26.371Z,21.81
2022-08-29T05:39:53.336Z,21.87
2022-08-29T05:42:22.171Z,21.84
2022-08-29T05:44:49.648Z,21.89
2022-08-29T05:47:18.951Z,21.90
2022-08-29T05:49:47.114Z,21.90
2022-08-29T05:52:17.925Z,21.90
2022-08-29T05:54:45.431Z,21.93
2022-08-29T05:57:18.909Z,21.96
2022-08-29T05:59:48.014Z,21.99
2022-08-29T06:02:15.557Z,22.04
2022-08-29T06:04:42.559Z,22.07
2022-08-29T06:07:10.360Z,22.12
2022-08-29T06:09:39.487Z,22.17
2022-08-29T06:12:08.074Z,22.23
2022-08-29T06:14:35.155Z,22.27
2022-08-29T06:17:02.398Z,22.29
2022-08-29T06:19:34.692Z,22.28
2022-08-29T06:22:03.601Z,22.44
2022-08-29T06:24:38.726Z,22.51
2022-08-29T06:27:06.153Z,22.54
2022-08-29T06:29:33.104Z,22.59
2022-08-29T06:32:09.877Z,22.62
2022-08-29T06:34:36.861Z,22.65
2022-08-29T06:37:03.804Z,22.70
2022-08-29T06:39:30.804Z,22.73
2022-08-29T06:41:57.750Z,22.76
2022-08-29T06:44:25.122Z,22.77
2022-08-29T06:46:52.233Z,22.83
2022-08-29T06:49:20.591Z,22.85
2022-08-29T06:51:57.430Z,22.89
2022-08-29T06:54:28.082Z,22.94
2022-08-29T06:56:56.553Z,22.94
2022-08-29T06:59:23.607Z,22.94
2022-08-29T07:01:50.746Z,23.01
2022-08-29T07:04:20.627Z,23.02
2022-08-29T07:06:48.319Z,23.08
2022-08-29T07:09:15.332Z,23.14
2022-08-29T07:11:43.132Z,23.18
2022-08-29T07:14:11.706Z,23.27
2022-08-29T07:16:39.668Z,23.37
2022-08-29T07:19:10.125Z,23.45
2022-08-29T07:21:38.116Z,23.55
2022-08-29T07:24:05.946Z,23.61
2022-08-29T07:26:38.825Z,23.67
2022-08-29T07:29:13.070Z,23.73
2022-08-29T07:31:40.159Z,23.79
2022-08-29T07:34:07.663Z,23.86
2022-08-29T07:36:35.880Z,23.92
2022-08-29T07:39:08.603Z,24.03
2022-08-29T07:41:35.854Z,24.12
2022-08-29T07:44:03.012Z,24.18
2022-08-29T07:46:31.498Z,24.24
2022-08-29T07:49:00.145Z,24.31
2022-08-29T07:51:28.526Z,24.43
2022-08-29T07:53:56.683Z,24.51
2022-08-29T07:56:28.175Z,24.54
2022-08-29T07:58:56.607Z,24.54
2022-08-29T08:01:24.705Z,24.56
2022-08-29T08:03:53.020Z,24.60
2022-08-29T08:06:27.364Z,24.64
2022-08-29T08:08:55.398Z,24.71
2022-08-29T08:11:24.838Z,24.76
2022-08-29T08:13:53.776Z,24.82
2022-08-29T08:16:25.003Z,24.83
2022-08-29T08:18:53.310Z,24.85
2022-08-29T08:21:20.679Z,24.92
2022-08-29T08:23:47.655Z,25.01
2022-08-29T08:26:15.273Z,25.11
2022-08-29T08:28:43.685Z,25.19
2022-08-29T08:31:14.261Z,25.30
2022-08-29T08:33:42.727Z,25.37
2022-08-29T08:36:22.563Z,25.42
2022-08-29T08:38:51.421Z,25.44
2022-08-29T08:41:29.613Z,25.39
2022-08-29T08:44:07.069Z,25.37
2022-08-29T08:46:43.078Z,25.31
2022-08-29T08:49:38.620Z,25.21
2022-08-29T08:52:18.643Z,25.20
2022-08-29T08:55:20.892Z,25.20
2022-08-29T08:58:01.451Z,25.21
2022-08-29T09:00:38.318Z,25.27
2022-08-29T09:03:17.034Z,25.33
2022-08-29T09:06:15.752Z,25.37
2022-08-29T09:09:34.364Z,25.42
2022-08-29T09:12:32.518Z,25.42
2022-08-29T09:15:07.871Z,25.41
2022-08-29T09:18:01.381Z,25.43
2022-08-29T09:20:34.120Z,25.47
2022-08-29T09:23:07.469Z,25.50
2022-08-29T09:25:36.374Z,25.55
2022-08-29T09:28:07.225Z,25.57
2022-08-29T09:30:36.740Z,25.62
2022-08-29T09:33:08.901Z,25.71
2022-08-29T09:35:44.369Z,25.76
2022-08-29T09:38:23.966Z,25.81
2022-08-29T09:40:56.933Z,25.88
2022-08-29T09:43:39.062Z,25.91
2022-08-29T09:46:10.911Z,25.97
2022-08-29T09:48:42.130Z,26.01
2022-08-29T09:51:22.200Z,26.08
2022-08-29T09:53:49.395Z,26.19
2022-08-29T09:56:25.136Z,26.28
2022-08-29T09:59:11.786Z,26.40
2022-08-29T10:01:39.553Z,26.51
2022-08-29T10:04:08.054Z,26.61
2022-08-29T10:06:45.030Z,26.66
2022-08-29T10:09:28.038Z,26.76
2022-08-29T10:12:16.829Z,26.77
2022-08-29T10:14:54.957Z,26.74
2022-08-29T10:17:56.461Z,26.71
2022-08-29T10:20:40.397Z,26.74
2022-08-29T10:23:30.927Z,26.82
2022-08-29T10:26:04.983Z,26.85
2022-08-29T10:28:43.082Z,26.89
2022-08-29T10:31:19.912Z,26.99
2022-08-29T10:34:11.231Z,27.02
2022-08-29T10:36:40.684Z,27.05
2022-08-29T10:39:19.242Z,27.08
2022-08-29T10:42:11.638Z,27.11
2022-08-29T10:45:25.351Z,27.15
2022-08-29T10:48:06.764Z,27.23
2022-08-29T10:51:05.369Z,27.25
2022-08-29T10:53:44.139Z,27.31
2022-08-29T10:56:28.623Z,27.36
2022-08-29T10:59:18.186Z,27.40
2022-08-29T11:02:01.710Z,27.42
2022-08-29T11:04:37.876Z,27.41
2022-08-29T11:07:16.341Z,27.40
2022-08-29T11:09:58.941Z,27.36
2022-08-29T11:12:55.686Z,27.33
2022-08-29T11:15:44.974Z,27.32
2022-08-29T11:18:59.100Z,27.28
2022-08-29T11:21:39.435Z,27.22
2022-08-29T11:24:07.408Z,27.21
2022-08-29T11:26:43.163Z,27.21
2022-08-29T11:29:50.833Z,27.17
2022-08-29T11:32:50.749Z,27.22
2022-08-29T11:36:02.449Z,27.21
2022-08-29T11:39:05.304Z,27.21
2022-08-29T11:41:38.701Z,27.23
2022-08-29T11:44:29.827Z,27.24
2022-08-29T11:46:57.831Z,27.28
2022-08-29T11:49:32.053Z,27.29
2022-08-29T11:52:18.907Z,27.25
2022-08-29T11:55:16.195Z,27.25
2022-08-29T11:58:22.988Z,27.18
2022-08-29T12:00:56.157Z,27.18
2022-08-29T12:03:35.670Z,27.17
2022-08-29T12:06:39.700Z,27.12
2022-08-29T12:09:13.828Z,27.09
2022-08-29T12:12:02.411Z,27.05
2022-08-29T12:14:43.831Z,27.03
2022-08-29T12:17:58.260Z,27.02
2022-08-29T12:20:38.057Z,27.03
2022-08-29T12:23:11.206Z,27.08
2022-08-29T12:28:58.136Z,27.12
2022-08-29T12:32:17.821Z,27.14
2022-08-29T12:35:22.430Z,27.13
2022-08-29T12:38:50.010Z,27.11
2022-08-29T12:41:56.557Z,27.16
2022-08-29T12:44:37.427Z,27.18
2022-08-29T12:47:25.178Z,27.19
2022-08-29T12:49:57.377Z,27.20
2022-08-29T12:52:31.691Z,27.25
2022-08-29T12:55:23.817Z,27.31
2022-08-29T12:57:56.922Z,27.34
2022-08-29T13:00:29.109Z,27.37
2022-08-29T13:03:05.381Z,27.36
2022-08-29T13:05:41.954Z,27.37
2022-08-29T13:08:26.299Z,27.41
2022-08-29T13:11:01.464Z,27.45
2022-08-29T13:13:30.008Z,27.50
2022-08-29T13:16:01.902Z,27.52
2022-08-29T13:18:31.155Z,27.57
2022-08-29T13:21:14.006Z,27.61
2022-08-29T13:23:47.188Z,27.65
2022-08-29T13:26:14.244Z,27.70
2022-08-29T13:28:59.556Z,27.76
2022-08-29T13:31:36.255Z,27.82
2022-08-29T13:34:19.617Z,27.90
2022-08-29T13:37:00.596Z,27.98
2022-08-29T13:39:43.465Z,28.04
2022-08-29T13:42:20.562Z,28.10
2022-08-29T13:44:51.787Z,28.12
2022-08-29T13:47:40.430Z,28.13
2022-08-29T13:50:13.240Z,28.17
2022-08-29T13:52:40.172Z,28.20
2022-08-29T13:55:09.863Z,28.19
2022-08-29T13:57:40.924Z,28.05
2022-08-29T14:00:11.689Z,27.70
2022-08-29T14:02:44.626Z,27.35
2022-08-29T14:05:13.703Z,27.04
2022-08-29T14:07:43.314Z,26.71
2022-08-29T14:10:12.984Z,26.47
2022-08-29T14:12:40.047Z,26.30
2022-08-29T14:15:10.716Z,26.19
2022-08-29T14:17:40.977Z,26.13
2022-08-29T14:20:12.475Z,26.04
2022-08-29T14:22:40.016Z,26.04
2022-08-29T14:25:10.677Z,26.15
2022-08-29T14:27:38.682Z,26.26
2022-08-29T14:30:08.954Z,26.43
2022-08-29T14:32:35.920Z,26.47
2022-08-29T14:35:04.534Z,26.44
2022-08-29T14:37:33.160Z,26.56
2022-08-29T14:40:00.143Z,26.72
2022-08-29T14:42:27.402Z,26.84
2022-08-29T14:44:54.310Z,26.93
2022-08-29T14:47:21.236Z,26.98
2022-08-29T14:49:48.133Z,27.05
2022-08-29T14:52:15.257Z,27.14
2022-08-29T14:54:43.136Z,27.20
2022-08-29T14:57:11.224Z,27.24
2022-08-29T14:59:40.565Z,27.28
2022-08-29T15:02:09.955Z,27.32
2022-08-29T15:04:37.966Z,27.29
2022-08-29T15:07:11.789Z,27.04
2022-08-29T15:09:41.884Z,26.78
2022-08-29T15:12:09.226Z,26.59
2022-08-29T15:14:36.246Z,26.44
2022-08-29T15:17:06.469Z,26.35
2022-08-29T15:22:22.767Z,26.39
2022-08-29T15:24:51.349Z,26.41
2022-08-29T15:27:26.860Z,26.46
2022-08-29T15:29:55.430Z,26.51
2022-08-29T15:32:22.532Z,26.60
2022-08-29T15:34:49.751Z,26.65
2022-08-29T15:37:16.806Z,26.58
2022-08-29T15:39:43.709Z,26.44
2022-08-29T15:42:12.128Z,26.43
2022-08-29T15:44:44.312Z,26.42
2022-08-29T15:47:11.522Z,26.44
2022-08-29T15:49:39.502Z,26.46
2022-08-29T15:52:06.577Z,26.45
2022-08-29T15:54:33.509Z,26.51
2022-08-29T15:57:00.424Z,26.54
2022-08-29T15:59:54.434Z,26.59
2022-08-29T16:02:15.117Z,26.57
2022-08-29T16:04:47.472Z,26.61
2022-08-29T16:07:16.840Z,26.63
2022-08-29T16:09:44.941Z,26.60
2022-08-29T16:12:11.927Z,26.57
2022-08-29T16:14:58.544Z,26.50
2022-08-29T16:17:29.641Z,26.21
2022-08-29T16:19:56.815Z,25.82
2022-08-29T16:22:24.385Z,25.40
2022-08-29T16:24:51.294Z,25.09
2022-08-29T16:27:22.008Z,24.82
2022-08-29T16:29:48.916Z,24.75
2022-08-29T16:32:16.288Z,24.67
2022-08-29T16:34:43.479Z,24.45
2022-08-29T16:37:10.751Z,24.24
2022-08-29T16:39:37.661Z,24.02
2022-08-29T16:42:04.687Z,23.87
2022-08-29T16:44:33.150Z,23.77
2022-08-29T16:47:00.088Z,23.66
2022-08-29T16:49:27.185Z,23.55
2022-08-29T16:51:54.089Z,23.45
2022-08-29T16:54:20.998Z,23.42
2022-08-29T16:56:47.938Z,23.40
2022-08-29T16:59:14.974Z,23.35
2022-08-29T17:01:46.175Z,23.34
2022-08-29T17:04:22.274Z,23.38
2022-08-29T17:06:49.508Z,23.41
2022-08-29T17:09:20.296Z,23.29
2022-08-29T17:11:47.836Z,23.25
2022-08-29T17:14:17.294Z,23.11
2022-08-29T17:16:47.592Z,23.07
2022-08-29T17:19:15.162Z,23.01
2022-08-29T17:21:43.228Z,22.95
2022-08-29T17:24:11.139Z,22.87
2022-08-29T17:26:42.125Z,22.80
2022-08-29T17:29:10.047Z,22.78
2022-08-29T17:31:38.931Z,22.80
2022-08-29T17:34:08.167Z,22.73
2022-08-29T17:36:36.902Z,22.70
2022-08-29T17:39:06.092Z,22.62
2022-08-29T17:41:33.432Z,22.62
2022-08-29T17:44:02.488Z,22.60
2022-08-29T17:46:29.854Z,22.56
2022-08-29T17:48:57.159Z,22.58
2022-08-29T17:51:24.248Z,22.56
2022-08-29T17:53:51.815Z,22.58
2022-08-29T17:56:26.417Z,22.61
2022-08-29T17:58:53.385Z,22.59
2022-08-29T18:01:20.397Z,22.60
2022-08-29T18:03:47.380Z,22.56
2022-08-29T18:06:15.330Z,22.55
2022-08-29T18:08:44.096Z,22.55
2022-08-29T18:11:16.539Z,22.51
2022-08-29T18:13:44.127Z,22.46
2022-08-29T18:16:12.044Z,22.39
2022-08-29T18:18:41.228Z,22.30
2022-08-29T18:21:08.817Z,22.25
2022-08-29T18:23:36.391Z,22.25
2022-08-29T18:26:04.087Z,22.24
2022-08-29T18:28:31.465Z,22.26
2022-08-29T18:30:59.000Z,22.37
2022-08-29T18:33:38.908Z,22.48
2022-08-29T18:36:11.929Z,22.60
2022-08-29T18:38:38.852Z,22.69
2022-08-29T18:41:06.450Z,22.70
2022-08-29T18:43:34.754Z,22.75
2022-08-29T18:46:03.739Z,22.82
2022-08-29T18:48:31.348Z,22.90
2022-08-29T18:50:59.665Z,22.91
2022-08-29T18:53:31.010Z,22.99
2022-08-29T18:56:00.199Z,23.00
2022-08-29T18:58:30.972Z,22.94
2022-08-29T19:00:59.707Z,22.95
2022-08-29T19:03:26.955Z,22.94
2022-08-29T19:05:53.975Z,22.87
2022-08-29T19:08:24.721Z,22.79
2022-08-29T19:10:55.299Z,22.75
2022-08-29T19:13:25.318Z,22.68
2022-08-29T19:15:56.741Z,22.62
2022-08-29T19:18:23.721Z,22.52
2022-08-29T19:21:02.427Z,22.47
2022-08-29T19:23:38.263Z,22.38
2022-08-29T19:26:34.959Z,22.39
2022-08-29T19:29:12.550Z,22.32
2022-08-29T19:31:41.184Z,22.23
2022-08-29T19:34:08.515Z,22.19
2022-08-29T19:36:36.478Z,22.15
2022-08-29T19:39:03.651Z,22.15
2022-08-29T19:41:34.285Z,22.15
2022-08-29T19:44:01.280Z,22.17
2022-08-29T19:46:28.198Z,22.17
2022-08-29T19:48:55.396Z,22.24
2022-08-29T19:51:24.425Z,22.33
2022-08-29T19:53:53.520Z,22.37
2022-08-29T19:56:20.452Z,22.51
2022-08-29T19:58:47.620Z,22.54
2022-08-29T20:01:16.947Z,22.54
2022-08-29T20:03:43.994Z,22.55
2022-08-29T20:06:12.227Z,22.57
2022-08-29T20:08:45.462Z,22.62
2022-08-29T20:11:21.100Z,22.69
2022-08-29T20:13:51.149Z,22.75
2022-08-29T20:16:22.394Z,22.78
2022-08-29T20:18:52.106Z,22.76
2022-08-29T20:21:20.904Z,22.67
2022-08-29T20:23:52.858Z,22.53
2022-08-29T20:26:24.512Z,22.38
2022-08-29T20:28:52.532Z,22.24
2022-08-29T20:31:20.270Z,22.11
2022-08-29T20:33:48.792Z,22.03
2022-08-29T20:36:38.621Z,21.97
2022-08-29T20:39:07.706Z,21.91
2022-08-29T20:41:34.660Z,21.85
2022-08-29T20:44:06.922Z,21.79
2022-08-29T20:46:40.254Z,21.71
2022-08-29T20:49:09.599Z,21.62
2022-08-29T20:51:37.579Z,21.62
2022-08-29T20:54:06.161Z,21.62
2022-08-29T20:56:33.306Z,21.60
2022-08-29T20:59:00.215Z,21.58
2022-08-29T21:01:27.230Z,21.55
2022-08-29T21:04:13.011Z,21.51
2022-08-29T21:06:39.932Z,21.40
2022-08-29T21:09:07.386Z,21.38
2022-08-29T21:11:34.448Z,21.32
2022-08-29T21:14:01.379Z,21.30
2022-08-29T21:16:28.633Z,21.32
2022-08-29T21:18:55.655Z,21.35
2022-08-29T21:21:24.946Z,21.38
2022-08-29T21:23:52.332Z,21.40
2022-08-29T21:26:19.242Z,21.41
2022-08-29T21:28:47.224Z,21.36
2022-08-29T21:31:15.462Z,21.39
2022-08-29T21:33:45.428Z,21.36
2022-08-29T21:36:19.162Z,21.30
2022-08-29T21:38:48.158Z,21.24
2022-08-29T21:41:15.864Z,21.17
2022-08-29T21:43:43.020Z,21.14
2022-08-29T21:46:29.793Z,21.11
2022-08-29T21:49:00.129Z,21.09
2022-08-29T21:51:28.376Z,21.07
2022-08-29T21:53:57.486Z,21.09
2022-08-29T21:56:26.888Z,21.09
2022-08-29T21:58:55.109Z,21.09
2022-08-29T22:01:27.170Z,21.09
2022-08-29T22:03:54.592Z,21.08
2022-08-29T22:06:21.949Z,21.07
2022-08-29T22:08:49.330Z,21.08
2022-08-29T22:11:24.936Z,21.01
2022-08-29T22:14:06.191Z,21.07
2022-08-29T22:16:33.594Z,21.11
2022-08-29T22:19:03.949Z,21.12
2022-08-29T22:21:35.981Z,21.11
2022-08-29T22:24:03.756Z,21.10
2022-08-29T22:26:30.840Z,21.10
2022-08-29T22:28:57.750Z,21.12
2022-08-29T22:31:24.920Z,21.06
2022-08-29T22:33:51.990Z,21.05
2022-08-29T22:36:20.045Z,21.09
2022-08-29T22:38:47.734Z,21.20
2022-08-29T22:41:23.596Z,21.29
2022-08-29T22:44:16.483Z,21.33
2022-08-29T22:46:43.947Z,21.32
2022-08-29T22:49:10.939Z,21.33
2022-08-29T22:51:37.927Z,21.29
2022-08-29T22:54:23.867Z,21.27
2022-08-29T22:56:50.881Z,21.25
2022-08-29T22:59:21.624Z,21.33
2022-08-29T23:01:48.640Z,21.39
2022-08-29T23:04:15.635Z,21.48
2022-08-29T23:06:42.632Z,21.54
2022-08-29T23:09:10.488Z,21.57
2022-08-29T23:11:37.635Z,21.58
2022-08-29T23:14:06.787Z,21.58
2022-08-29T23:16:34.835Z,21.54
2022-08-29T23:19:02.444Z,21.44
2022-08-29T23:21:31.114Z,21.44
2022-08-29T23:23:58.506Z,21.41
2022-08-29T23:26:26.554Z,21.38
2022-08-29T23:28:53.860Z,21.32
2022-08-29T23:31:22.539Z,21.28
2022-08-29T23:33:50.227Z,21.29
2022-08-29T23:36:18.520Z,21.31
2022-08-29T23:38:45.652Z,21.36
2022-08-29T23:41:13.581Z,21.41
2022-08-29T23:43:41.361Z,21.45
2022-08-29T23:46:08.727Z,21.45
2022-08-29T23:48:36.152Z,21.41
2022-08-29T23:51:09.026Z,21.34
2022-08-29T23:53:36.215Z,21.28
2022-08-29T23:56:16.159Z,21.27
2022-08-29T23:58:43.258Z,21.29
